createdAt,value
2022-12-03T00:00:12.885Z,1.60
2022-12-03T00:02:41.762Z,1.60
2022-12-03T00:05:09.629Z,1.60
2022-12-03T00:07:37.670Z,1.60
2022-12-03T00:10:20.163Z,1.50
2022-12-03T00:12:56.853Z,1.60
2022-12-03T00:15:24.128Z,1.60
2022-12-03T00:17:51.569Z,1.60
2022-12-03T00:20:21.615Z,1.60
2022-12-03T00:22:49.172Z,1.60
2022-12-03T00:25:19.575Z,1.50
2022-12-03T00:27:46.823Z,1.50
2022-12-03T00:30:15.246Z,1.50
2022-12-03T00:32:52.424Z,1.50
2022-12-03T00:35:20.388Z,1.50
2022-12-03T00:37:47.497Z,1.50
2022-12-03T00:40:14.680Z,1.50
2022-12-03T00:42:41.587Z,1.50
2022-12-03T00:45:09.381Z,1.50
2022-12-03T00:47:36.336Z,1.50
2022-12-03T00:50:03.992Z,1.50
2022-12-03T00:52:31.576Z,1.50
2022-12-03T00:54:58.687Z,1.50
2022-12-03T00:57:25.618Z,1.60
2022-12-03T00:59:52.673Z,1.50
2022-12-03T01:02:19.712Z,1.50
2022-12-03T01:04:46.897Z,1.50
2022-12-03T01:07:14.770Z,1.50
2022-12-03T01:09:41.854Z,1.50
2022-12-03T01:12:09.565Z,1.50
2022-12-03T01:14:37.140Z,1.50
2022-12-03T01:17:04.564Z,1.50
2022-12-03T01:19:31.744Z,1.50
2022-12-03T01:21:58.786Z,1.50
2022-12-03T01:24:25.825Z,1.50
2022-12-03T01:26:53.553Z,1.50
2022-12-03T01:29:20.651Z,1.50
2022-12-03T01:32:09.636Z,1.50
2022-12-03T01:34:37.904Z,1.50
2022-12-03T01:37:05.358Z,1.50
2022-12-03T01:39:32.451Z,1.50
2022-12-03T01:41:59.952Z,1.50
2022-12-03T01:44:31.060Z,1.50
2022-12-03T01:47:01.687Z,1.50
2022-12-03T01:49:39.419Z,1.50
2022-12-03T01:52:11.255Z,1.50
2022-12-03T01:54:42.536Z,1.40
2022-12-03T01:57:46.185Z,1.50
2022-12-03T02:00:18.604Z,1.50
2022-12-03T02:03:00.458Z,1.40
2022-12-03T02:05:30.510Z,1.40
2022-12-03T02:07:58.356Z,1.40
2022-12-03T02:10:36.274Z,1.40
2022-12-03T02:13:10.216Z,1.40
2022-12-03T02:15:39.346Z,1.40
2022-12-03T02:18:09.128Z,1.40
2022-12-03T02:20:47.119Z,1.40
2022-12-03T02:23:37.170Z,1.40
2022-12-03T02:26:04.527Z,1.40
2022-12-03T02:28:32.323Z,1.40
2022-12-03T02:30:59.699Z,1.40
2022-12-03T02:33:28.598Z,1.40
2022-12-03T02:36:00.433Z,1.30
2022-12-03T02:38:30.871Z,1.30
2022-12-03T02:41:02.884Z,1.30
2022-12-03T02:43:30.264Z,1.30
2022-12-03T02:46:01.570Z,1.30
2022-12-03T02:48:39.192Z,1.30
2022-12-03T02:51:10.266Z,1.30
2022-12-03T02:53:42.697Z,1.30
2022-12-03T02:56:14.378Z,1.30
2022-12-03T02:58:43.748Z,1.30
2022-12-03T03:01:12.130Z,1.30
2022-12-03T03:03:39.617Z,1.30
2022-12-03T03:06:08.278Z,1.20
2022-12-03T03:08:37.199Z,1.30
2022-12-03T03:11:04.301Z,1.20
2022-12-03T03:13:33.758Z,1.20
2022-12-03T03:16:02.889Z,1.20
2022-12-03T03:18:30.047Z,1.20
2022-12-03T03:20:57.048Z,1.20
2022-12-03T03:23:25.002Z,1.20
2022-12-03T03:26:18.138Z,1.20
2022-12-03T03:28:51.316Z,1.20
2022-12-03T03:31:23.255Z,1.20
2022-12-03T03:33:51.150Z,1.20
2022-12-03T03:36:19.925Z,1.10
2022-12-03T03:38:47.898Z,1.10
2022-12-03T03:41:15.809Z,1.10
2022-12-03T03:43:44.570Z,1.20
2022-12-03T03:46:12.067Z,1.10
2022-12-03T03:48:41.130Z,1.10
2022-12-03T03:51:09.708Z,1.10
2022-12-03T03:53:40.435Z,1.10
2022-12-03T03:56:08.242Z,1.10
2022-12-03T03:58:35.581Z,1.10
2022-12-03T04:01:03.305Z,1.10
2022-12-03T04:03:30.381Z,1.00
2022-12-03T04:05:57.340Z,1.10
2022-12-03T04:08:24.269Z,1.00
2022-12-03T04:11:09.797Z,1.10
2022-12-03T04:13:36.834Z,1.10
2022-12-03T04:16:04.032Z,1.10
2022-12-03T04:18:42.889Z,1.00
2022-12-03T04:21:34.506Z,1.10
2022-12-03T04:24:04.927Z,1.00
2022-12-03T04:26:50.542Z,1.00
2022-12-03T04:29:17.669Z,1.00
2022-12-03T04:32:03.714Z,1.00
2022-12-03T04:34:49.370Z,1.00
2022-12-03T04:37:16.810Z,1.00
2022-12-03T04:39:43.879Z,1.00
2022-12-03T04:42:10.842Z,1.00
2022-12-03T04:44:38.063Z,0.90
2022-12-03T04:47:10.879Z,0.90
2022-12-03T04:49:46.489Z,0.90
2022-12-03T04:52:15.685Z,0.90
2022-12-03T04:54:43.361Z,0.90
2022-12-03T04:57:10.966Z,0.90
2022-12-03T04:59:38.487Z,0.90
2022-12-03T05:02:06.771Z,0.90
2022-12-03T05:04:34.517Z,0.80
2022-12-03T05:07:01.974Z,0.80
2022-12-03T05:09:28.961Z,0.80
2022-12-03T05:11:55.901Z,0.80
2022-12-03T05:14:22.866Z,0.80
2022-12-03T05:16:52.281Z,0.80
2022-12-03T05:19:19.202Z,0.80
2022-12-03T05:21:46.124Z,0.80
2022-12-03T05:24:13.070Z,0.80
2022-12-03T05:26:39.986Z,0.70
2022-12-03T05:29:07.177Z,0.80
2022-12-03T05:31:34.228Z,0.80
2022-12-03T05:34:01.370Z,0.80
2022-12-03T05:36:28.379Z,0.70
2022-12-03T05:38:55.286Z,0.70
2022-12-03T05:41:40.451Z,0.70
2022-12-03T05:44:07.355Z,0.60
2022-12-03T05:46:34.332Z,0.70
2022-12-03T05:49:01.486Z,0.60
2022-12-03T05:51:28.370Z,0.70
2022-12-03T05:53:55.359Z,0.60
2022-12-03T05:56:22.342Z,0.60
2022-12-03T05:58:49.257Z,0.60
2022-12-03T06:01:16.312Z,0.60
2022-12-03T06:03:43.301Z,0.60
2022-12-03T06:06:10.613Z,0.60
2022-12-03T06:08:37.659Z,0.60
2022-12-03T06:11:04.720Z,0.60
2022-12-03T06:13:31.944Z,0.60
2022-12-03T06:15:59.292Z,0.60
2022-12-03T06:18:26.310Z,0.60
2022-12-03T06:20:53.422Z,0.60
2022-12-03T06:23:20.345Z,0.60
2022-12-03T06:25:47.404Z,0.60
2022-12-03T06:28:14.342Z,0.60
2022-12-03T06:30:41.584Z,0.60
2022-12-03T06:33:10.484Z,0.60
2022-12-03T06:35:37.645Z,0.60
2022-12-03T06:38:05.005Z,0.60
2022-12-03T06:40:32.146Z,0.60
2022-12-03T06:42:59.216Z,0.60
2022-12-03T06:45:26.063Z,0.60
2022-12-03T06:47:52.918Z,0.60
2022-12-03T06:50:19.817Z,0.60
2022-12-03T06:52:46.789Z,0.60
2022-12-03T06:55:13.828Z,0.60
2022-12-03T06:57:40.872Z,0.50
2022-12-03T07:00:09.192Z,0.50
2022-12-03T07:02:36.745Z,0.50
2022-12-03T07:05:04.648Z,0.50
2022-12-03T07:07:31.726Z,0.50
2022-12-03T07:09:59.171Z,0.50
2022-12-03T07:12:26.053Z,0.50
2022-12-03T07:14:53.387Z,0.50
2022-12-03T07:17:20.704Z,0.50
2022-12-03T07:19:47.652Z,0.50
2022-12-03T07:22:14.577Z,0.50
2022-12-03T07:24:41.565Z,0.50
2022-12-03T07:27:08.502Z,0.50
2022-12-03T07:29:35.560Z,0.50
2022-12-03T07:32:02.641Z,0.50
2022-12-03T07:34:29.844Z,0.60
2022-12-03T07:36:56.947Z,0.50
2022-12-03T07:39:23.837Z,0.50
2022-12-03T07:41:50.832Z,0.60
2022-12-03T07:44:17.715Z,0.50
2022-12-03T07:46:44.753Z,0.60
2022-12-03T07:49:12.448Z,0.60
2022-12-03T07:51:39.391Z,0.60
2022-12-03T07:54:06.313Z,0.60
2022-12-03T07:56:33.263Z,0.60
2022-12-03T07:59:00.172Z,0.60
2022-12-03T08:01:27.206Z,0.70
2022-12-03T08:03:54.178Z,0.70
2022-12-03T08:06:21.118Z,0.70
2022-12-03T08:08:47.983Z,0.70
2022-12-03T08:11:15.641Z,0.70
2022-12-03T08:13:42.846Z,0.70
2022-12-03T08:16:17.734Z,0.70
2022-12-03T08:18:46.317Z,0.70
2022-12-03T08:21:15.521Z,0.70
2022-12-03T08:23:42.571Z,0.70
2022-12-03T08:26:28.123Z,0.60
2022-12-03T08:28:55.047Z,0.60
2022-12-03T08:31:32.934Z,0.60
2022-12-03T08:34:20.057Z,0.70
2022-12-03T08:36:49.740Z,0.70
2022-12-03T08:39:34.569Z,0.70
2022-12-03T08:42:58.158Z,0.70
2022-12-03T08:45:40.361Z,0.60
2022-12-03T08:48:44.055Z,0.70
2022-12-03T08:51:25.682Z,0.60
2022-12-03T08:54:01.890Z,0.60
2022-12-03T08:56:31.132Z,0.60
2022-12-03T08:59:18.722Z,0.70
2022-12-03T09:01:47.323Z,0.60
2022-12-03T09:04:45.331Z,0.70
2022-12-03T09:07:12.436Z,0.70
2022-12-03T09:09:39.355Z,0.60
2022-12-03T09:12:06.604Z,0.70
2022-12-03T09:14:33.526Z,0.70
2022-12-03T09:17:00.591Z,0.70
2022-12-03T09:19:31.111Z,0.70
2022-12-03T09:21:58.300Z,0.70
2022-12-03T09:24:25.285Z,0.80
2022-12-03T09:26:52.457Z,0.80
2022-12-03T09:29:19.411Z,0.80
2022-12-03T09:31:46.874Z,0.80
2022-12-03T09:34:14.278Z,0.80
2022-12-03T09:36:41.338Z,0.80
2022-12-03T09:39:08.271Z,0.80
2022-12-03T09:41:35.614Z,0.80
2022-12-03T09:44:04.502Z,0.80
2022-12-03T09:46:34.153Z,0.80
2022-12-03T09:49:02.093Z,0.90
2022-12-03T09:51:33.800Z,0.90
2022-12-03T09:54:03.048Z,0.90
2022-12-03T09:56:30.453Z,0.90
2022-12-03T09:58:57.556Z,0.90
2022-12-03T10:01:29.977Z,0.80
2022-12-03T10:03:58.500Z,0.90
2022-12-03T10:06:25.595Z,0.90
2022-12-03T10:08:57.297Z,0.90
2022-12-03T10:11:26.000Z,0.90
2022-12-03T10:13:55.317Z,1.00
2022-12-03T10:16:22.650Z,1.00
2022-12-03T10:19:01.114Z,1.00
2022-12-03T10:21:38.880Z,1.00
2022-12-03T10:24:28.949Z,1.00
2022-12-03T10:26:58.493Z,1.10
2022-12-03T10:29:34.960Z,1.00
2022-12-03T10:32:09.226Z,1.10
2022-12-03T10:34:41.840Z,1.10
2022-12-03T10:37:22.688Z,1.20
2022-12-03T10:40:24.374Z,1.20
2022-12-03T10:42:51.259Z,1.20
2022-12-03T10:45:23.013Z,1.10
2022-12-03T10:48:10.953Z,1.20
2022-12-03T10:50:38.687Z,1.20
2022-12-03T10:53:05.612Z,1.20
2022-12-03T10:55:38.576Z,1.20
2022-12-03T10:58:05.507Z,1.20
2022-12-03T11:00:32.373Z,1.20
2022-12-03T11:02:59.242Z,1.20
2022-12-03T11:05:28.496Z,1.20
2022-12-03T11:07:56.374Z,1.20
2022-12-03T11:10:23.798Z,1.10
2022-12-03T11:13:47.885Z,1.20
2022-12-03T11:16:35.164Z,1.20
2022-12-03T11:19:02.644Z,1.20
2022-12-03T11:21:32.461Z,1.20
2022-12-03T11:24:15.673Z,1.20
2022-12-03T11:27:23.026Z,1.30
2022-12-03T11:30:01.013Z,1.30
2022-12-03T11:33:20.023Z,1.30
2022-12-03T11:36:47.835Z,1.30
2022-12-03T11:39:11.850Z,1.30
2022-12-03T11:41:39.202Z,1.30
2022-12-03T11:44:31.549Z,1.30
2022-12-03T11:47:00.128Z,1.30
2022-12-03T11:49:39.541Z,1.40
2022-12-03T11:52:20.530Z,1.40
2022-12-03T11:54:52.677Z,1.30
2022-12-03T11:57:37.768Z,1.30
2022-12-03T12:00:21.292Z,1.30
2022-12-03T12:02:49.458Z,1.20
2022-12-03T12:05:29.218Z,1.20
2022-12-03T12:07:56.813Z,1.30
2022-12-03T12:10:47.244Z,1.30
2022-12-03T12:13:58.200Z,1.30
2022-12-03T12:16:53.186Z,1.30
2022-12-03T12:19:36.836Z,1.30
2022-12-03T12:22:31.837Z,1.30
2022-12-03T12:25:01.372Z,1.30
2022-12-03T12:27:45.304Z,1.30
2022-12-03T12:30:20.012Z,1.20
2022-12-03T12:32:51.547Z,1.30
2022-12-03T12:35:30.144Z,1.30
2022-12-03T12:38:18.754Z,1.30
2022-12-03T12:40:49.365Z,1.40
2022-12-03T12:43:27.590Z,1.30
2022-12-03T12:46:13.698Z,1.30
2022-12-03T12:48:45.864Z,1.30
2022-12-03T12:51:15.282Z,1.30
2022-12-03T12:53:57.816Z,1.20
2022-12-03T12:56:31.058Z,1.30
2022-12-03T12:59:15.408Z,1.20
2022-12-03T13:01:44.191Z,1.20
2022-12-03T13:04:16.725Z,1.20
2022-12-03T13:06:44.677Z,1.10
2022-12-03T13:09:26.076Z,1.20
2022-12-03T13:11:54.249Z,1.20
2022-12-03T13:14:37.156Z,1.20
2022-12-03T13:17:19.877Z,1.20
2022-12-03T13:20:03.266Z,1.20
2022-12-03T13:22:33.679Z,1.20
2022-12-03T13:25:32.633Z,1.20
2022-12-03T13:28:07.438Z,1.20
2022-12-03T13:30:34.499Z,1.20
2022-12-03T13:33:08.637Z,1.20
2022-12-03T13:35:36.620Z,1.20
2022-12-03T13:38:13.275Z,1.20
2022-12-03T13:40:41.482Z,1.10
2022-12-03T13:43:15.705Z,1.10
2022-12-03T13:45:49.340Z,1.10
2022-12-03T13:48:23.217Z,1.10
2022-12-03T13:50:51.573Z,1.10
2022-12-03T13:53:27.995Z,1.10
2022-12-03T13:56:41.083Z,1.10
2022-12-03T13:59:09.003Z,1.10
2022-12-03T14:01:36.505Z,1.10
2022-12-03T14:04:04.225Z,1.10
2022-12-03T14:06:31.426Z,1.10
2022-12-03T14:08:58.440Z,1.10
2022-12-03T14:11:44.514Z,1.20
2022-12-03T14:14:11.401Z,1.10
2022-12-03T14:16:38.346Z,1.10
2022-12-03T14:19:06.299Z,1.10
2022-12-03T14:21:33.263Z,1.10
2022-12-03T14:24:00.350Z,1.10
2022-12-03T14:26:27.320Z,1.10
2022-12-03T14:28:54.270Z,1.10
2022-12-03T14:31:21.327Z,1.10
2022-12-03T14:33:49.065Z,1.10
2022-12-03T14:36:16.174Z,1.10
2022-12-03T14:38:43.052Z,1.10
2022-12-03T14:41:31.296Z,1.10
2022-12-03T14:43:58.411Z,1.00
2022-12-03T14:46:25.391Z,1.10
2022-12-03T14:48:52.645Z,1.00
2022-12-03T14:51:19.602Z,1.10
2022-12-03T14:53:46.765Z,1.10
2022-12-03T14:56:13.663Z,1.10
2022-12-03T14:58:40.559Z,1.10
2022-12-03T15:01:07.629Z,1.10
2022-12-03T15:03:34.611Z,1.10
2022-12-03T15:06:01.920Z,1.10
2022-12-03T15:08:28.843Z,1.10
2022-12-03T15:10:55.975Z,1.00
2022-12-03T15:13:23.229Z,1.00
2022-12-03T15:15:50.149Z,1.00
2022-12-03T15:18:17.135Z,1.00
2022-12-03T15:20:44.222Z,1.10
2022-12-03T15:23:14.305Z,1.10
2022-12-03T15:25:42.181Z,1.00
2022-12-03T15:28:09.115Z,1.00
2022-12-03T15:30:36.378Z,1.00
2022-12-03T15:33:03.851Z,1.00
2022-12-03T15:35:31.489Z,0.90
2022-12-03T15:37:58.909Z,0.90
2022-12-03T15:40:26.351Z,0.90
2022-12-03T15:42:53.426Z,0.90
2022-12-03T15:45:20.321Z,0.90
2022-12-03T15:47:47.246Z,0.90
2022-12-03T15:50:14.394Z,0.90
2022-12-03T15:52:41.518Z,0.90
2022-12-03T15:55:09.067Z,0.90
2022-12-03T15:57:35.959Z,0.90
2022-12-03T16:00:03.322Z,0.90
2022-12-03T16:02:33.940Z,0.80
2022-12-03T16:05:05.082Z,0.80
2022-12-03T16:07:33.015Z,0.80
2022-12-03T16:10:00.548Z,0.80
2022-12-03T16:12:27.869Z,0.80
2022-12-03T16:14:54.728Z,0.80
2022-12-03T16:17:21.633Z,0.80
2022-12-03T16:19:49.132Z,0.80
2022-12-03T16:22:16.721Z,0.80
2022-12-03T16:24:43.676Z,0.80
2022-12-03T16:27:10.741Z,0.70
2022-12-03T16:29:37.660Z,0.70
2022-12-03T16:32:05.433Z,0.70
2022-12-03T16:34:32.303Z,0.70
2022-12-03T16:36:59.202Z,0.70
2022-12-03T16:39:26.104Z,0.70
2022-12-03T16:41:53.118Z,0.70
2022-12-03T16:44:31.489Z,0.70
2022-12-03T16:47:02.023Z,0.70
2022-12-03T16:49:28.950Z,0.70
2022-12-03T16:51:58.352Z,0.70
2022-12-03T16:54:25.397Z,0.70
2022-12-03T16:56:52.272Z,0.70
2022-12-03T16:59:19.149Z,0.70
2022-12-03T17:01:46.020Z,0.60
2022-12-03T17:04:13.106Z,0.60
2022-12-03T17:06:41.353Z,0.70
2022-12-03T17:09:08.218Z,0.60
2022-12-03T17:11:35.055Z,0.60
2022-12-03T17:14:02.006Z,0.60
2022-12-03T17:16:29.332Z,0.60
2022-12-03T17:18:56.311Z,0.60
2022-12-03T17:21:23.306Z,0.60
2022-12-03T17:23:51.121Z,0.60
2022-12-03T17:26:18.986Z,0.60
2022-12-03T17:28:46.442Z,0.60
2022-12-03T17:31:14.331Z,0.60
2022-12-03T17:33:41.404Z,0.60
2022-12-03T17:36:08.734Z,0.60
2022-12-03T17:38:38.989Z,0.60
2022-12-03T17:41:07.476Z,0.60
2022-12-03T17:43:34.618Z,0.50
2022-12-03T17:46:01.804Z,0.60
2022-12-03T17:48:31.750Z,0.50
2022-12-03T17:50:59.055Z,0.60
2022-12-03T17:53:26.025Z,0.60
2022-12-03T17:55:53.002Z,0.60
2022-12-03T17:58:19.937Z,0.50
2022-12-03T18:00:46.866Z,0.50
2022-12-03T18:03:13.854Z,0.50
2022-12-03T18:05:41.736Z,0.50
2022-12-03T18:08:08.743Z,0.50
2022-12-03T18:10:35.829Z,0.50
2022-12-03T18:13:02.972Z,0.50
2022-12-03T18:15:30.918Z,0.50
2022-12-03T18:17:57.819Z,0.50
2022-12-03T18:20:24.777Z,0.50
2022-12-03T18:22:51.904Z,0.50
2022-12-03T18:25:19.432Z,0.50
2022-12-03T18:27:47.396Z,0.50
2022-12-03T18:30:15.161Z,0.50
2022-12-03T18:32:42.845Z,0.50
2022-12-03T18:35:09.974Z,0.50
2022-12-03T18:37:37.874Z,0.60
2022-12-03T18:40:12.666Z,0.60
2022-12-03T18:42:40.259Z,0.60
2022-12-03T18:45:10.311Z,0.60
2022-12-03T18:47:37.871Z,0.60
2022-12-03T18:50:06.835Z,0.60
2022-12-03T18:52:33.888Z,0.60
2022-12-03T18:55:01.491Z,0.60
2022-12-03T18:57:28.779Z,0.60
2022-12-03T18:59:56.048Z,0.50
2022-12-03T19:03:01.903Z,0.50
2022-12-03T19:05:10.983Z,0.50
2022-12-03T19:07:38.171Z,0.50
2022-12-03T19:10:05.865Z,0.50
2022-12-03T19:12:33.443Z,0.50
2022-12-03T19:15:00.840Z,0.50
2022-12-03T19:17:28.001Z,0.50
2022-12-03T19:19:55.701Z,0.50
2022-12-03T19:22:23.700Z,0.50
2022-12-03T19:24:50.774Z,0.50
2022-12-03T19:27:18.136Z,0.50
2022-12-03T19:29:48.712Z,0.50
2022-12-03T19:32:20.118Z,0.60
2022-12-03T19:34:47.262Z,0.60
2022-12-03T19:37:14.640Z,0.50
2022-12-03T19:39:42.168Z,0.60
2022-12-03T19:42:09.394Z,0.50
2022-12-03T19:44:36.309Z,0.50
2022-12-03T19:47:03.477Z,0.50
2022-12-03T19:49:30.510Z,0.50
2022-12-03T19:51:57.469Z,0.50
2022-12-03T19:54:24.538Z,0.50
2022-12-03T19:56:51.699Z,0.50
2022-12-03T19:59:18.700Z,0.50
2022-12-03T20:01:46.473Z,0.50
2022-12-03T20:04:13.964Z,0.50
2022-12-03T20:06:40.903Z,0.50
2022-12-03T20:09:13.849Z,0.50
2022-12-03T20:11:42.670Z,0.50
2022-12-03T20:14:14.977Z,0.50
2022-12-03T20:16:42.463Z,0.50
2022-12-03T20:19:12.769Z,0.50
2022-12-03T20:21:40.617Z,0.50
2022-12-03T20:24:10.978Z,0.50
2022-12-03T20:26:41.575Z,0.50
2022-12-03T20:29:08.624Z,0.50
2022-12-03T20:31:35.932Z,0.50
2022-12-03T20:34:03.988Z,0.50
2022-12-03T20:36:31.900Z,0.50
2022-12-03T20:39:01.760Z,0.50
2022-12-03T20:41:29.843Z,0.50
2022-12-03T20:43:57.504Z,0.50
2022-12-03T20:46:29.278Z,0.50
2022-12-03T20:48:57.458Z,0.50
2022-12-03T20:51:27.616Z,0.50
2022-12-03T20:53:55.902Z,0.50
2022-12-03T20:56:31.486Z,0.50
2022-12-03T20:59:06.651Z,0.50
2022-12-03T21:01:38.308Z,0.50
2022-12-03T21:04:07.990Z,0.50
2022-12-03T21:06:37.106Z,0.50
2022-12-03T21:09:07.882Z,0.50
2022-12-03T21:11:36.074Z,0.50
2022-12-03T21:14:06.677Z,0.50
2022-12-03T21:17:07.829Z,0.50
2022-12-03T21:19:25.002Z,0.50
2022-12-03T21:21:52.177Z,0.50
2022-12-03T21:24:19.195Z,0.50
2022-12-03T21:26:46.200Z,0.50
2022-12-03T21:29:13.083Z,0.50
2022-12-03T21:31:40.317Z,0.50
2022-12-03T21:34:08.813Z,0.50
2022-12-03T21:36:35.967Z,0.40
2022-12-03T21:39:03.228Z,0.50
2022-12-03T21:41:30.261Z,0.50
2022-12-03T21:43:57.467Z,0.50
2022-12-03T21:47:10.471Z,0.50
2022-12-03T21:49:13.605Z,0.50
2022-12-03T21:51:40.765Z,0.50
2022-12-03T21:54:07.657Z,0.50
2022-12-03T21:56:34.873Z,0.50
2022-12-03T21:59:01.992Z,0.50
2022-12-03T22:01:29.106Z,0.50
2022-12-03T22:03:56.319Z,0.50
2022-12-03T22:06:23.573Z,0.50
2022-12-03T22:08:50.621Z,0.50
2022-12-03T22:11:22.988Z,0.50
2022-12-03T22:13:50.389Z,0.50
2022-12-03T22:16:20.082Z,0.50
2022-12-03T22:18:47.862Z,0.50
2022-12-03T22:21:18.749Z,0.50
2022-12-03T22:23:46.197Z,0.50
2022-12-03T22:26:15.653Z,0.50
2022-12-03T22:28:44.165Z,0.50
2022-12-03T22:31:12.260Z,0.50
2022-12-03T22:33:40.353Z,0.50
2022-12-03T22:36:19.695Z,0.50
2022-12-03T22:38:47.555Z,0.50
2022-12-03T22:41:14.781Z,0.50
2022-12-03T22:43:41.974Z,0.50
2022-12-03T22:46:13.045Z,0.50
2022-12-03T22:48:42.823Z,0.50
2022-12-03T22:51:16.338Z,0.50
2022-12-03T22:53:43.786Z,0.50
2022-12-03T22:56:11.060Z,0.50
2022-12-03T22:58:40.186Z,0.50
2022-12-03T23:01:08.054Z,0.50
2022-12-03T23:03:35.975Z,0.50
2022-12-03T23:06:10.406Z,0.50
2022-12-03T23:08:37.848Z,0.50
2022-12-03T23:11:05.157Z,0.50
2022-12-03T23:13:32.410Z,0.50
2022-12-03T23:16:00.673Z,0.50
2022-12-03T23:18:27.850Z,0.50
2022-12-03T23:20:56.968Z,0.50
2022-12-03T23:23:27.745Z,0.50
2022-12-03T23:26:13.371Z,0.50
2022-12-03T23:28:42.178Z,0.50
2022-12-03T23:31:30.816Z,0.50
2022-12-03T23:33:59.390Z,0.50
2022-12-03T23:36:30.048Z,0.50
2022-12-03T23:38:58.462Z,0.50
2022-12-03T23:41:28.934Z,0.50
2022-12-03T23:43:56.440Z,0.40
2022-12-03T23:46:29.386Z,0.40
2022-12-03T23:48:58.671Z,0.40
2022-12-03T23:51:26.624Z,0.40
2022-12-03T23:53:55.907Z,0.40
2022-12-03T23:56:29.368Z,0.40
2022-12-03T23:58:57.428Z,0.40
